Time;durP1;ratioP1;P1;durP2;ratioP2;P2;SDS_P1;SDS_P2;PMS_P1;PMS_P2;Temp;Humidity;BMP_temperature;BMP_pressure;BME280_temperature;BME280_humidity;BME280_pressure;Samples;Min_cycle;Max_cycle;Signal;HPM_P1;HPM_P2
2022/11/12 00:04:09;;;;;;;27.60;15.80;;;;;;;4.13;78.17;101292.34;211046;1297;140592;-71
2022/11/12 00:09:13;;;;;;;23.40;14.60;;;;;;;4.00;78.46;101297.66;210846;1291;235371;-73
2022/11/12 00:14:17;;;;;;;26.10;18.10;;;;;;;3.89;78.43;101300.25;209946;1293;140904;-70
2022/11/12 00:19:21;;;;;;;29.40;19.00;;;;;;;3.82;78.63;101299.89;207655;1296;140670;-70
2022/11/12 00:24:24;;;;;;;29.50;17.20;;;;;;;3.77;78.88;101297.34;209713;1288;141329;-72
2022/11/12 00:29:28;;;;;;;24.80;16.90;;;;;;;3.77;79.05;101293.71;210800;1296;141063;-70
2022/11/12 00:34:32;;;;;;;29.30;17.10;;;;;;;3.72;79.15;101298.89;210528;1291;140651;-70
2022/11/12 00:39:36;;;;;;;28.00;15.40;;;;;;;3.61;79.22;101291.89;208936;1292;140029;-70
2022/11/12 00:44:40;;;;;;;27.00;16.60;;;;;;;3.51;79.14;101293.82;210731;1288;140635;-70
2022/11/12 00:49:44;;;;;;;25.40;17.70;;;;;;;3.35;78.92;101297.48;210737;1291;139999;-70
2022/11/12 00:54:48;;;;;;;33.40;19.30;;;;;;;3.24;78.95;101296.05;210916;1292;139786;-71
2022/11/12 00:59:52;;;;;;;33.50;19.70;;;;;;;3.22;79.25;101297.37;210850;1298;141221;-70
2022/11/12 01:04:56;;;;;;;25.40;17.10;;;;;;;3.17;79.16;101296.48;209704;1292;140259;-71
2022/11/12 01:10:00;;;;;;;24.30;16.00;;;;;;;3.07;79.22;101293.71;209148;1281;140731;-68
2022/11/12 01:15:05;;;;;;;29.80;16.30;;;;;;;3.01;79.81;101291.06;211020;1292;139959;-69
2022/11/12 01:20:09;;;;;;;31.40;17.60;;;;;;;2.98;79.54;101290.39;210856;1296;141622;-69
2022/11/12 01:25:13;;;;;;;28.70;17.80;;;;;;;2.94;79.67;101293.90;210786;1288;141929;-69
2022/11/12 01:30:16;;;;;;;28.00;18.10;;;;;;;2.96;79.65;101291.95;210951;1296;142740;-69
2022/11/12 01:35:20;;;;;;;27.30;17.70;;;;;;;2.90;79.84;101293.55;211053;1294;139608;-70
2022/11/12 01:40:24;;;;;;;30.60;17.10;;;;;;;2.86;80.15;101291.34;209767;1295;139676;-69
2022/11/12 01:45:28;;;;;;;25.60;18.10;;;;;;;2.80;79.78;101295.10;209893;1282;140687;-70
2022/11/12 01:50:35;;;;;;;25.00;15.20;;;;;;;2.75;79.92;101294.48;210885;1292;141291;-69
2022/11/12 01:55:39;;;;;;;24.20;18.90;;;;;;;2.74;80.02;101293.26;211005;1295;139409;-69
2022/11/12 02:00:44;;;;;;;26.80;16.60;;;;;;;2.70;80.34;101290.81;211096;1292;140026;-70
2022/11/12 02:06:06;;;;;;;27.40;19.80;;;;;;;2.70;80.29;101296.77;211025;1288;140596;-71
2022/11/12 02:11:14;;;;;;;27.70;16.90;;;;;;;2.69;80.02;101297.72;210769;1289;140245;-71
2022/11/12 02:16:18;;;;;;;26.10;17.20;;;;;;;2.69;80.13;101300.88;210967;1292;141186;-71
2022/11/12 02:21:23;;;;;;;26.90;16.40;;;;;;;2.66;80.01;101296.92;210750;1294;140086;-71
2022/11/12 02:26:31;;;;;;;27.30;17.70;;;;;;;2.59;79.78;101298.64;207794;1295;139564;-71
2022/11/12 02:31:35;;;;;;;35.80;15.60;;;;;;;2.54;80.03;101299.69;207671;1296;139796;-69
2022/11/12 02:36:39;;;;;;;27.10;18.10;;;;;;;2.48;79.79;101298.81;207797;1295;140133;-69
2022/11/12 02:41:43;;;;;;;20.10;13.50;;;;;;;2.37;79.56;101299.51;208306;1299;141291;-70
2022/11/12 02:46:46;;;;;;;19.80;12.50;;;;;;;2.23;79.61;101308.20;211317;1288;140824;-70
2022/11/12 02:51:50;;;;;;;27.10;16.10;;;;;;;2.16;79.91;101313.59;210973;1292;139727;-70
2022/11/12 02:56:54;;;;;;;25.90;15.20;;;;;;;2.16;80.14;101319.14;210968;1292;139439;-70
2022/11/12 03:01:57;;;;;;;23.40;15.20;;;;;;;2.19;79.88;101324.71;210677;1298;142476;-69
2022/11/12 03:07:01;;;;;;;20.90;14.20;;;;;;;2.16;80.31;101324.46;211165;1292;140919;-69
2022/11/12 03:12:04;;;;;;;22.10;15.00;;;;;;;2.16;80.26;101329.16;209693;1294;140694;-70
2022/11/12 03:17:08;;;;;;;24.60;16.60;;;;;;;2.21;80.92;101330.30;208993;1290;139708;-69
2022/11/12 03:22:12;;;;;;;22.50;13.90;;;;;;;2.27;81.33;101339.88;211157;1292;140193;-69
2022/11/12 03:27:16;;;;;;;30.10;18.90;;;;;;;2.35;81.56;101341.50;211049;1293;152604;-70
2022/11/12 03:32:20;;;;;;;27.40;15.90;;;;;;;2.55;82.30;101337.61;210951;1295;140185;-71
2022/11/12 03:37:23;;;;;;;25.60;17.20;;;;;;;2.73;81.84;101335.42;211024;1292;140475;-71
2022/11/12 03:42:27;;;;;;;25.90;16.10;;;;;;;2.93;82.43;101335.64;210828;1292;141944;-71
2022/11/12 03:47:31;;;;;;;23.90;16.70;;;;;;;3.14;82.66;101328.50;211006;1292;140176;-72
2022/11/12 03:52:35;;;;;;;21.80;16.10;;;;;;;3.32;83.00;101328.18;210874;1295;141322;-72
2022/11/12 03:57:38;;;;;;;25.80;15.00;;;;;;;3.47;83.08;101326.31;211141;1292;139462;-71
2022/11/12 04:02:42;;;;;;;28.40;16.70;;;;;;;3.61;83.13;101330.08;211141;1289;139897;-71
2022/11/12 04:13:26;;;;;;;28.40;18.70;;;;;;;3.93;83.78;101330.96;210826;1289;140556;-69
2022/11/12 04:23:52;;;;;;;27.60;15.40;;;;;;;4.26;84.05;101323.69;211102;1292;140700;-68
2022/11/12 04:34:28;;;;;;;28.60;17.40;;;;;;;4.35;83.54;101312.77;211153;1292;140962;-68
2022/11/12 04:39:31;;;;;;;23.50;15.20;;;;;;;4.46;84.00;101308.65;211140;1287;140835;-68
2022/11/12 04:49:58;;;;;;;28.90;17.40;;;;;;;4.75;84.60;101304.23;210897;1284;140359;-70
2022/11/12 04:55:03;;;;;;;26.20;16.50;;;;;;;4.97;84.96;101309.87;210792;1292;141001;-70
2022/11/12 05:00:08;;;;;;;25.30;16.10;;;;;;;5.16;84.84;101307.66;211003;1292;142069;-69
2022/11/12 05:05:12;;;;;;;26.00;17.00;;;;;;;5.34;85.20;101311.39;208852;1290;140372;-70
2022/11/12 05:10:16;;;;;;;29.20;17.30;;;;;;;5.49;85.39;101312.27;207634;1295;140952;-69
2022/11/12 05:15:20;;;;;;;26.10;17.60;;;;;;;5.56;85.23;101316.09;208430;1292;354658;-70
2022/11/12 05:20:24;;;;;;;27.70;15.30;;;;;;;5.63;85.00;101312.73;207510;1292;141023;-70
2022/11/12 05:25:28;;;;;;;24.50;16.10;;;;;;;5.73;85.53;101313.02;207935;1295;139542;-69
2022/11/12 05:30:31;;;;;;;31.10;16.60;;;;;;;5.78;85.25;101316.82;207536;1298;140904;-69
2022/11/12 05:35:37;;;;;;;30.60;17.50;;;;;;;5.80;85.39;101325.35;207838;1293;139876;-69
2022/11/12 05:40:44;;;;;;;23.90;15.80;;;;;;;5.89;85.85;101328.04;207771;1275;140117;-68
2022/11/12 05:45:47;;;;;;;20.40;16.50;;;;;;;6.03;85.80;101330.31;207342;1283;141027;-71
2022/11/12 05:50:52;;;;;;;22.00;15.30;;;;;;;6.12;85.55;101333.40;210894;1292;141499;-69
2022/11/12 05:56:15;;;;;;;22.40;12.60;;;;;;;6.15;85.67;101342.59;211119;1289;140406;-68
2022/11/12 06:01:19;;;;;;;27.30;18.60;;;;;;;6.16;85.34;101347.89;210704;1289;141127;-68
2022/11/12 06:06:22;;;;;;;20.80;15.40;;;;;;;6.22;85.13;101346.45;210894;1278;140950;-69
2022/11/12 06:11:25;;;;;;;29.20;16.70;;;;;;;6.26;85.28;101352.46;210856;1289;140294;-68
2022/11/12 06:16:29;;;;;;;25.40;16.80;;;;;;;6.32;85.13;101351.14;211224;1278;140173;-68
2022/11/12 06:21:33;;;;;;;25.90;16.40;;;;;;;6.39;85.36;101364.51;211001;1290;139594;-69
2022/11/12 06:26:37;;;;;;;23.60;15.60;;;;;;;6.44;85.39;101369.02;210156;1289;140375;-68
2022/11/12 06:31:41;;;;;;;29.20;15.50;;;;;;;6.53;85.42;101370.73;210618;1289;141788;-69
2022/11/12 06:36:47;;;;;;;27.50;17.80;;;;;;;6.63;85.37;101374.70;209920;1289;140247;-69
2022/11/12 06:41:51;;;;;;;25.20;16.30;;;;;;;6.70;85.38;101370.24;209127;1293;141455;-70
2022/11/12 06:46:54;;;;;;;25.90;15.20;;;;;;;6.73;85.47;101365.48;210398;1283;139945;-71
2022/11/12 06:51:58;;;;;;;28.50;16.50;;;;;;;6.76;85.57;101368.61;210993;1291;140779;-73
2022/11/12 06:57:02;;;;;;;31.20;16.50;;;;;;;6.83;85.61;101369.52;208920;1283;141940;-69
2022/11/12 07:02:11;;;;;;;28.10;16.30;;;;;;;6.90;85.64;101367.66;210680;1284;141364;-68
2022/11/12 07:07:16;;;;;;;20.30;14.00;;;;;;;6.95;85.50;101362.02;210866;1292;141875;-69
2022/11/12 07:12:19;;;;;;;32.20;16.60;;;;;;;7.01;85.51;101365.84;208335;1292;140964;-70
2022/11/12 07:17:23;;;;;;;28.80;16.90;;;;;;;7.06;85.91;101371.98;207701;1288;140221;-69
2022/11/12 07:22:27;;;;;;;28.30;16.80;;;;;;;7.11;86.04;101375.92;210661;1292;206425;-73
2022/11/12 07:27:31;;;;;;;30.30;17.20;;;;;;;7.13;85.81;101380.95;210794;1292;140647;-73
2022/11/12 07:32:35;;;;;;;27.40;16.00;;;;;;;7.15;85.64;101379.23;210675;1291;141382;-69
2022/11/12 07:37:47;;;;;;;25.80;14.90;;;;;;;7.19;85.74;101376.73;210901;1285;151277;-69
2022/11/12 07:42:51;;;;;;;31.00;18.20;;;;;;;7.26;85.64;101378.98;210756;1292;139980;-70
2022/11/12 07:47:58;;;;;;;30.30;18.60;;;;;;;7.26;85.52;101383.89;210818;1298;140172;-70
2022/11/12 07:53:01;;;;;;;26.20;15.60;;;;;;;7.31;85.61;101384.64;210816;1284;140853;-69
2022/11/12 07:58:07;;;;;;;27.10;15.10;;;;;;;7.35;85.30;101384.50;210900;1292;141227;-69
2022/11/12 08:03:11;;;;;;;30.30;18.20;;;;;;;7.44;85.52;101379.75;210798;1292;141155;-71
2022/11/12 08:08:15;;;;;;;31.80;18.90;;;;;;;7.53;85.45;101385.65;210672;1284;141943;-71
2022/11/12 08:13:20;;;;;;;30.00;17.40;;;;;;;7.63;85.39;101392.09;210566;1292;142329;-73
2022/11/12 08:18:24;;;;;;;31.70;19.20;;;;;;;7.73;85.44;101397.27;210721;1285;140417;-70
2022/11/12 08:23:28;;;;;;;28.50;18.70;;;;;;;7.82;85.54;101396.64;210680;1291;140758;-69
2022/11/12 08:28:34;;;;;;;22.70;15.20;;;;;;;7.87;85.25;101392.17;211051;1281;143289;-68
2022/11/12 08:33:39;;;;;;;28.10;17.40;;;;;;;7.94;85.26;101396.23;210735;1297;141292;-72
2022/11/12 08:38:43;;;;;;;29.10;19.30;;;;;;;8.04;85.24;101402.52;210749;1295;140949;-72
2022/11/12 08:43:47;;;;;;;31.90;19.00;;;;;;;8.10;85.18;101404.54;210939;1297;140684;-70
2022/11/12 08:48:52;;;;;;;26.20;17.70;;;;;;;8.12;84.98;101402.01;210441;1292;140483;-68
2022/11/12 08:53:55;;;;;;;30.50;18.50;;;;;;;8.10;84.80;101409.78;210594;1284;140141;-67
2022/11/12 08:58:59;;;;;;;24.70;16.80;;;;;;;8.14;84.92;101416.50;210643;1292;140490;-69
2022/11/12 09:04:08;;;;;;;33.30;18.30;;;;;;;8.23;84.88;101420.33;210774;1292;141476;-69
2022/11/12 09:09:12;;;;;;;26.60;16.40;;;;;;;8.30;84.96;101424.79;208753;1276;140632;-69
2022/11/12 09:14:16;;;;;;;28.70;18.30;;;;;;;8.34;84.86;101425.02;210771;1292;139828;-68
2022/11/12 09:19:20;;;;;;;32.60;17.00;;;;;;;8.41;84.65;101425.87;210880;1292;141373;-69
2022/11/12 09:24:24;;;;;;;25.00;17.20;;;;;;;8.44;84.27;101429.44;210676;1292;140786;-70
2022/11/12 09:29:28;;;;;;;33.80;19.50;;;;;;;8.47;84.43;101423.73;210895;1283;140341;-73
2022/11/12 09:34:31;;;;;;;28.30;18.00;;;;;;;8.50;84.53;101427.37;210400;1291;140733;-70
2022/11/12 09:39:35;;;;;;;22.80;16.00;;;;;;;8.55;84.49;101428.31;210760;1289;140411;-70
2022/11/12 09:44:43;;;;;;;24.60;16.50;;;;;;;8.65;84.34;101429.77;210727;1292;142280;-72
2022/11/12 09:50:00;;;;;;;26.00;18.90;;;;;;;8.75;84.20;101432.88;210692;1290;140244;-68
2022/11/12 09:55:17;;;;;;;28.60;16.60;;;;;;;8.76;83.91;101431.66;210892;1291;142178;-69
2022/11/12 10:00:22;;;;;;;26.90;18.60;;;;;;;8.76;83.82;101437.52;210739;1282;140339;-69
2022/11/12 10:05:29;;;;;;;23.50;16.20;;;;;;;8.81;83.60;101436.41;210772;1284;142191;-69
2022/11/12 10:10:47;;;;;;;24.80;16.30;;;;;;;8.87;83.43;101435.91;210814;1292;141309;-69
2022/11/12 10:22:08;;;;;;;25.40;14.90;;;;;;;9.01;83.33;101434.52;210897;1292;140217;-70
2022/11/12 10:27:19;;;;;;;29.40;16.70;;;;;;;8.94;82.95;101429.46;210525;1290;141786;-69
2022/11/12 10:32:26;;;;;;;24.60;16.70;;;;;;;8.99;82.89;101435.97;210506;1292;141757;-69
2022/11/12 10:37:54;;;;;;;31.60;20.00;;;;;;;9.04;83.01;101437.35;210706;1282;141084;-67
2022/11/12 10:42:59;;;;;;;19.70;14.50;;;;;;;9.05;82.76;101434.67;210900;1293;140992;-69
2022/11/12 10:48:04;;;;;;;23.90;16.70;;;;;;;9.06;82.52;101435.38;210740;1282;141651;-69
2022/11/12 10:53:11;;;;;;;26.60;16.60;;;;;;;9.10;82.59;101433.02;209312;1291;141215;-68
2022/11/12 10:58:20;;;;;;;28.10;17.40;;;;;;;9.10;82.37;101432.99;210913;1297;141232;-71
2022/11/12 11:03:36;;;;;;;26.40;17.80;;;;;;;9.14;82.32;101438.19;210780;1285;246140;-69
2022/11/12 11:08:46;;;;;;;27.10;16.00;;;;;;;9.17;82.40;101445.80;210520;1291;139468;-69
2022/11/12 11:13:53;;;;;;;23.70;14.80;;;;;;;9.16;82.10;101446.20;210849;1282;140984;-69
2022/11/12 11:19:05;;;;;;;21.70;15.30;;;;;;;9.15;81.75;101445.13;210817;1290;141142;-69
2022/11/12 11:24:14;;;;;;;24.60;15.90;;;;;;;9.12;82.00;101451.02;210647;1285;151844;-69
2022/11/12 11:29:31;;;;;;;24.70;14.90;;;;;;;9.07;81.71;101455.61;210750;1291;141425;-69
2022/11/12 11:34:35;;;;;;;25.40;14.90;;;;;;;9.06;81.61;101451.46;211029;1291;140913;-68
2022/11/12 11:39:59;;;;;;;20.10;14.30;;;;;;;9.10;81.56;101457.17;210461;1284;141682;-68
2022/11/12 11:45:32;;;;;;;17.40;11.40;;;;;;;9.14;81.56;101457.48;210147;1290;142511;-68
2022/11/12 11:51:12;;;;;;;20.60;13.30;;;;;;;9.16;81.52;101451.41;210780;1290;150854;-70
2022/11/12 11:56:19;;;;;;;20.20;14.50;;;;;;;9.20;81.53;101441.24;210769;1291;140380;-69
2022/11/12 12:01:36;;;;;;;21.80;15.10;;;;;;;9.25;81.51;101439.77;210782;1292;141263;-70
2022/11/12 12:06:52;;;;;;;24.20;13.90;;;;;;;9.27;81.61;101442.86;210953;1292;139307;-70
2022/11/12 12:12:05;;;;;;;20.20;13.40;;;;;;;9.28;81.40;101442.25;210224;1297;140159;-69
2022/11/12 12:17:47;;;;;;;28.80;15.00;;;;;;;9.27;80.99;101441.27;210899;1292;139916;-68
2022/11/12 12:23:22;;;;;;;22.40;13.90;;;;;;;9.26;81.06;101431.84;210804;1291;249684;-68
2022/11/12 12:28:32;;;;;;;26.20;15.50;;;;;;;9.26;80.62;101429.38;210663;1292;140444;-68
2022/11/12 12:33:46;;;;;;;21.70;13.80;;;;;;;9.28;80.78;101426.45;210769;1292;140289;-68
2022/11/12 12:39:13;;;;;;;25.70;14.50;;;;;;;9.31;80.86;101435.67;210904;1292;139614;-68
2022/11/12 12:44:17;;;;;;;20.10;13.20;;;;;;;9.36;80.88;101442.13;210893;1292;141176;-68
2022/11/12 12:49:35;;;;;;;22.20;12.90;;;;;;;9.40;80.66;101437.83;210736;1284;141221;-68
2022/11/12 12:54:39;;;;;;;24.30;13.70;;;;;;;9.41;80.64;101442.11;210587;1292;141662;-68
2022/11/12 12:59:43;;;;;;;20.80;15.00;;;;;;;9.41;80.27;101438.05;210844;1292;139897;-68
2022/11/12 13:04:54;;;;;;;22.10;15.30;;;;;;;9.35;80.39;101444.98;209897;1285;142348;-68
2022/11/12 13:10:50;;;;;;;23.90;15.80;;;;;;;9.36;80.39;101442.77;210835;1292;141027;-68
2022/11/12 13:15:59;;;;;;;17.10;12.90;;;;;;;9.38;80.50;101438.95;210522;1293;141530;-68
2022/11/12 13:21:14;;;;;;;25.00;16.10;;;;;;;9.36;80.12;101436.52;210698;1290;141340;-68
2022/11/12 13:26:56;;;;;;;25.40;16.50;;;;;;;9.35;80.37;101431.33;210913;1292;139942;-68
2022/11/12 13:32:26;;;;;;;23.40;15.60;;;;;;;9.33;79.80;101424.40;210869;1297;235512;-68
2022/11/12 13:37:34;;;;;;;25.80;17.40;;;;;;;9.38;80.36;101425.05;210749;1290;140818;-68
2022/11/12 13:42:47;;;;;;;24.30;15.60;;;;;;;9.40;80.46;101421.27;210246;1293;139297;-68
2022/11/12 13:47:52;;;;;;;27.30;17.00;;;;;;;9.37;80.08;101423.96;210498;1291;140313;-68
2022/11/12 13:52:57;;;;;;;27.50;16.40;;;;;;;9.35;80.03;101424.59;209680;1289;139493;-71
2022/11/12 13:58:01;;;;;;;20.70;13.30;;;;;;;9.35;80.25;101426.65;208498;1288;140543;-71
2022/11/12 14:03:07;;;;;;;22.60;15.20;;;;;;;9.38;79.92;101422.55;210870;1289;140301;-71
2022/11/12 14:08:26;;;;;;;25.60;17.00;;;;;;;9.36;80.03;101421.41;210754;1284;140377;-71
2022/11/12 14:14:03;;;;;;;24.60;17.00;;;;;;;9.30;79.97;101426.94;210072;1292;140242;-70
2022/11/12 14:19:19;;;;;;;31.10;17.20;;;;;;;9.33;79.96;101422.14;207415;1282;141180;-70
2022/11/12 14:24:23;;;;;;;25.20;16.70;;;;;;;9.32;80.00;101424.05;208932;1285;139992;-69
2022/11/12 14:29:27;;;;;;;25.90;15.30;;;;;;;9.32;80.06;101417.54;210865;1292;140095;-69
2022/11/12 14:34:38;;;;;;;18.50;14.40;;;;;;;9.28;80.00;101411.76;210935;1298;236488;-69
2022/11/12 14:39:42;;;;;;;19.60;14.40;;;;;;;9.30;80.01;101411.66;210419;1292;140962;-69
2022/11/12 14:44:46;;;;;;;29.70;16.80;;;;;;;9.30;79.77;101426.90;210819;1285;141602;-69
2022/11/12 14:49:50;;;;;;;31.40;16.10;;;;;;;9.27;79.83;101425.54;210862;1292;140171;-69
2022/11/12 14:55:03;;;;;;;25.80;15.70;;;;;;;9.24;80.04;101421.85;210848;1288;140229;-69
2022/11/12 15:00:38;;;;;;;25.80;16.40;;;;;;;9.21;79.98;101424.44;210711;1292;141488;-69
2022/11/12 15:05:56;;;;;;;22.10;14.10;;;;;;;9.22;79.99;101424.66;210730;1283;140811;-69
2022/11/12 15:11:17;;;;;;;27.90;16.70;;;;;;;9.22;80.12;101436.64;210671;1298;140298;-69
2022/11/12 15:16:31;;;;;;;26.40;17.00;;;;;;;9.18;79.98;101438.03;210909;1292;139625;-69
2022/11/12 15:21:35;;;;;;;27.50;17.00;;;;;;;9.21;79.99;101440.87;209632;1292;140915;-69
2022/11/12 15:26:42;;;;;;;26.70;15.90;;;;;;;9.24;80.38;101441.10;210076;1293;140735;-69
2022/11/12 15:31:49;;;;;;;25.70;17.00;;;;;;;9.23;80.05;101439.29;210679;1291;139799;-68
2022/11/12 15:36:57;;;;;;;22.30;15.30;;;;;;;9.18;80.19;101444.70;210826;1297;219244;-68
2022/11/12 15:42:05;;;;;;;23.10;15.60;;;;;;;9.16;80.03;101444.61;210109;1296;141599;-69
2022/11/12 15:47:19;;;;;;;22.70;15.90;;;;;;;9.18;80.31;101446.17;210693;1293;141494;-68
2022/11/12 15:52:22;;;;;;;22.60;14.80;;;;;;;9.19;80.37;101455.40;210965;1292;139989;-69
2022/11/12 15:57:30;;;;;;;27.10;16.30;;;;;;;9.16;80.08;101455.77;210877;1292;140172;-68
2022/11/12 16:02:35;;;;;;;34.10;17.60;;;;;;;9.16;80.01;101456.23;210891;1292;140625;-68
2022/11/12 16:07:40;;;;;;;29.20;18.10;;;;;;;9.20;80.37;101462.36;210651;1293;141403;-68
2022/11/12 16:12:46;;;;;;;30.60;18.70;;;;;;;9.21;80.48;101459.63;210789;1292;140609;-69
2022/11/12 16:17:53;;;;;;;31.80;18.50;;;;;;;9.24;80.58;101456.81;210811;1292;140579;-68
2022/11/12 16:22:57;;;;;;;26.60;16.70;;;;;;;9.28;80.85;101463.67;210786;1291;141663;-69
2022/11/12 16:28:01;;;;;;;34.60;17.40;;;;;;;9.32;80.32;101465.89;210799;1298;141037;-69
2022/11/12 16:33:05;;;;;;;31.30;18.40;;;;;;;9.32;80.22;101465.86;210580;1298;142457;-69
2022/11/12 16:38:13;;;;;;;28.70;17.50;;;;;;;9.26;80.49;101462.91;210864;1292;142700;-68
2022/11/12 16:43:17;;;;;;;27.40;18.50;;;;;;;9.21;80.24;101460.20;210671;1299;210375;-68
2022/11/12 16:48:21;;;;;;;25.70;16.40;;;;;;;9.21;80.13;101458.86;210750;1289;141401;-68
2022/11/12 16:53:25;;;;;;;20.30;14.70;;;;;;;9.23;80.47;101464.17;210813;1292;140305;-68
2022/11/12 16:58:29;;;;;;;22.90;17.10;;;;;;;9.23;80.35;101454.92;210918;1292;142096;-68
2022/11/12 17:03:32;;;;;;;29.50;17.80;;;;;;;9.22;80.57;101459.78;210837;1292;141027;-68
2022/11/12 17:08:37;;;;;;;19.00;13.80;;;;;;;9.23;80.41;101458.61;210559;1288;141532;-68
2022/11/12 17:13:42;;;;;;;25.00;16.70;;;;;;;9.27;80.46;101464.69;209133;1288;831883;-68
2022/11/12 17:18:47;;;;;;;20.70;15.10;;;;;;;9.30;80.45;101469.74;210762;1298;139972;-68
2022/11/12 17:23:53;;;;;;;24.10;15.80;;;;;;;9.26;80.50;101470.23;210479;1280;140425;-68
2022/11/12 17:28:57;;;;;;;22.40;14.50;;;;;;;9.24;80.54;101472.57;210691;1299;141158;-68
2022/11/12 17:34:10;;;;;;;25.00;15.60;;;;;;;9.28;80.59;101470.47;210884;1292;140675;-68
2022/11/12 17:39:15;;;;;;;19.80;14.20;;;;;;;9.20;80.08;101470.89;210769;1292;140073;-69
2022/11/12 17:44:19;;;;;;;21.50;15.00;;;;;;;9.12;80.32;101465.02;210968;1293;140488;-68
2022/11/12 17:49:23;;;;;;;25.70;16.00;;;;;;;9.05;80.19;101463.27;210731;1292;140665;-69
2022/11/12 17:54:28;;;;;;;20.70;14.30;;;;;;;9.01;80.28;101466.90;210602;1288;141094;-68
2022/11/12 17:59:36;;;;;;;24.50;14.70;;;;;;;9.02;80.43;101469.70;210831;1298;141455;-69
2022/11/12 18:04:42;;;;;;;23.90;15.00;;;;;;;9.06;80.65;101468.61;210733;1297;140373;-69
2022/11/12 18:09:47;;;;;;;24.60;13.90;;;;;;;9.00;80.58;101464.92;210706;1287;152070;-68
2022/11/12 18:14:52;;;;;;;20.80;14.10;;;;;;;9.03;80.97;101452.92;210745;1291;140112;-68
2022/11/12 18:19:57;;;;;;;20.70;11.40;;;;;;;9.09;80.75;101452.98;210664;1297;140054;-68
2022/11/12 18:25:02;;;;;;;20.70;13.50;;;;;;;9.15;80.91;101452.17;210761;1284;142039;-68
2022/11/12 18:30:07;;;;;;;16.70;13.50;;;;;;;9.17;80.89;101457.23;210985;1297;141921;-68
2022/11/12 18:35:19;;;;;;;23.40;13.90;;;;;;;9.18;80.87;101445.11;210848;1299;247211;-68
2022/11/12 18:40:25;;;;;;;21.70;15.00;;;;;;;9.21;81.02;101455.73;210779;1293;140087;-67
2022/11/12 18:45:31;;;;;;;27.70;16.00;;;;;;;9.22;80.68;101463.34;210871;1298;140745;-68
2022/11/12 18:50:37;;;;;;;29.00;18.20;;;;;;;9.19;80.86;101470.05;210718;1293;141022;-68
2022/11/12 18:55:42;;;;;;;29.40;18.30;;;;;;;9.17;80.94;101466.88;210696;1285;139993;-68
2022/11/12 19:00:46;;;;;;;28.50;16.60;;;;;;;9.16;80.61;101469.45;210588;1289;140540;-68
2022/11/12 19:06:02;;;;;;;29.30;19.10;;;;;;;9.12;80.63;101466.36;210696;1292;141154;-68
2022/11/12 19:11:14;;;;;;;25.40;16.80;;;;;;;9.10;80.80;101464.48;210796;1296;140978;-69
2022/11/12 19:16:21;;;;;;;30.00;18.40;;;;;;;8.96;80.20;101464.48;210622;1299;144985;-69
2022/11/12 19:21:26;;;;;;;31.00;21.40;;;;;;;8.85;80.69;101467.81;210669;1298;142134;-69
2022/11/12 19:26:31;;;;;;;36.20;21.60;;;;;;;8.90;81.13;101459.11;210659;1298;141222;-69
2022/11/12 19:31:36;;;;;;;34.00;23.40;;;;;;;8.94;80.92;101458.73;210356;1296;140359;-68
2022/11/12 19:36:40;;;;;;;38.70;20.40;;;;;;;8.94;80.88;101469.60;210671;1292;141119;-69
2022/11/12 19:41:44;;;;;;;34.00;22.10;;;;;;;8.92;81.16;101473.50;210694;1292;141785;-68
2022/11/12 19:46:48;;;;;;;35.80;20.80;;;;;;;8.98;81.22;101473.11;211008;1292;140823;-69
2022/11/12 19:51:53;;;;;;;33.70;21.20;;;;;;;9.03;81.23;101473.50;210983;1299;140788;-69
2022/11/12 19:56:58;;;;;;;36.40;20.90;;;;;;;9.04;81.20;101477.71;210772;1298;141807;-68
2022/11/12 20:02:03;;;;;;;32.70;19.20;;;;;;;9.01;80.75;101482.77;210827;1293;142137;-68
2022/11/12 20:07:08;;;;;;;31.90;20.00;;;;;;;9.00;80.93;101480.18;210729;1289;141232;-68
2022/11/12 20:12:12;;;;;;;34.00;19.40;;;;;;;9.00;81.31;101481.98;210734;1298;140115;-67
2022/11/12 20:17:18;;;;;;;38.20;21.70;;;;;;;8.98;81.09;101485.68;210755;1283;141634;-68
2022/11/12 20:22:25;;;;;;;27.20;17.30;;;;;;;8.98;80.82;101483.13;210705;1288;141889;-68
2022/11/12 20:27:36;;;;;;;36.90;19.60;;;;;;;9.00;81.13;101488.69;209960;1276;249933;-68
2022/11/12 20:32:40;;;;;;;34.00;21.40;;;;;;;8.98;81.03;101481.30;210753;1292;139796;-69
2022/11/12 20:37:48;;;;;;;32.70;20.20;;;;;;;8.96;81.19;101486.91;210775;1283;140572;-69
2022/11/12 20:42:54;;;;;;;32.00;21.00;;;;;;;8.96;81.20;101486.17;210802;1300;222548;-68
2022/11/12 20:47:57;;;;;;;33.90;20.60;;;;;;;8.98;81.28;101490.21;210547;1297;142316;-69
2022/11/12 20:53:01;;;;;;;40.60;21.70;;;;;;;8.93;81.29;101486.40;210752;1291;140195;-68
2022/11/12 20:58:06;;;;;;;33.40;20.40;;;;;;;8.87;81.26;101489.76;210848;1292;140850;-68
2022/11/12 21:03:09;;;;;;;35.60;19.40;;;;;;;8.87;81.28;101489.55;210918;1293;142094;-69
2022/11/12 21:08:15;;;;;;;32.90;20.70;;;;;;;8.87;81.51;101488.29;210739;1284;142640;-70
2022/11/12 21:13:19;;;;;;;33.40;20.60;;;;;;;8.89;81.50;101490.92;210250;1298;140915;-69
2022/11/12 21:18:25;;;;;;;27.90;16.70;;;;;;;8.83;81.45;101485.86;210897;1292;140262;-68
2022/11/12 21:23:38;;;;;;;26.50;18.80;;;;;;;8.70;81.20;101486.55;210727;1299;139726;-69
2022/11/12 21:28:49;;;;;;;39.60;19.30;;;;;;;8.68;81.46;101488.26;210720;1292;141798;-69
2022/11/12 21:33:59;;;;;;;31.20;19.40;;;;;;;8.69;81.70;101488.89;210737;1292;142525;-66
2022/11/12 21:39:03;;;;;;;33.00;19.00;;;;;;;8.72;81.79;101483.67;210764;1292;140683;-68
2022/11/12 21:44:07;;;;;;;35.00;20.10;;;;;;;8.74;81.98;101480.44;209953;1282;139854;-69
2022/11/12 21:49:10;;;;;;;31.20;16.90;;;;;;;8.71;82.06;101486.98;210735;1292;140434;-68
2022/11/12 21:54:14;;;;;;;39.70;21.50;;;;;;;8.73;82.18;101480.38;210102;1297;140906;-68
2022/11/12 21:59:17;;;;;;;28.60;19.80;;;;;;;8.75;81.92;101481.36;210735;1289;141656;-69
2022/11/12 22:04:22;;;;;;;34.50;21.20;;;;;;;8.77;82.15;101479.58;210833;1290;140450;-69
2022/11/12 22:09:29;;;;;;;31.40;19.90;;;;;;;8.71;81.87;101480.99;210836;1295;140059;-69
2022/11/12 22:14:33;;;;;;;33.60;19.50;;;;;;;8.65;82.05;101475.25;210633;1291;141340;-69
2022/11/12 22:19:37;;;;;;;33.80;19.00;;;;;;;8.62;82.30;101481.34;210790;1292;141976;-72
2022/11/12 22:24:42;;;;;;;35.90;21.00;;;;;;;8.68;82.27;101479.80;210572;1298;140597;-69
2022/11/12 22:29:46;;;;;;;35.10;21.90;;;;;;;8.68;82.28;101476.52;210828;1285;140602;-67
2022/11/12 22:34:50;;;;;;;38.40;19.90;;;;;;;8.69;82.69;101483.67;210926;1296;140104;-69
2022/11/12 22:39:54;;;;;;;36.70;19.30;;;;;;;8.73;82.72;101478.41;210611;1298;141199;-69
2022/11/12 22:44:57;;;;;;;30.80;19.80;;;;;;;8.71;82.12;101479.77;210672;1289;143009;-69
2022/11/12 22:50:01;;;;;;;30.30;18.00;;;;;;;8.58;82.11;101479.23;210839;1288;144389;-72
2022/11/12 22:55:06;;;;;;;34.90;20.40;;;;;;;8.58;82.53;101478.40;210847;1292;140569;-68
2022/11/12 23:00:10;;;;;;;29.00;18.50;;;;;;;8.62;82.61;101481.20;210738;1298;141502;-70
2022/11/12 23:05:14;;;;;;;33.10;19.80;;;;;;;8.58;82.88;101472.05;210750;1291;140457;-68
2022/11/12 23:10:17;;;;;;;31.90;20.20;;;;;;;8.63;82.72;101476.48;210843;1291;141317;-68
2022/11/12 23:15:21;;;;;;;35.40;20.30;;;;;;;8.58;82.51;101476.81;210853;1284;141179;-69
2022/11/12 23:20:24;;;;;;;34.40;19.60;;;;;;;8.55;82.50;101474.63;210885;1292;140733;-67
2022/11/12 23:25:32;;;;;;;32.70;21.50;;;;;;;8.45;82.72;101478.20;210825;1292;247179;-67
2022/11/12 23:30:36;;;;;;;40.90;22.50;;;;;;;8.45;82.73;101478.23;210659;1292;140926;-70